Time;durP1;ratioP1;P1;durP2;ratioP2;P2;SDS_P1;SDS_P2;PMS_P1;PMS_P2;Temp;Humidity;BMP_temperature;BMP_pressure;BME280_temperature;BME280_humidity;BME280_pressure;Samples;Min_cycle;Max_cycle;Signal;HPM_P1;HPM_P2
2022/06/23 00:03:02;;;;;;;8.32;4.07;;;;;;;;;;8334687;28;20100;-91
2022/06/23 00:07:08;;;;;;;7.85;4.25;;;;;;;;;;8334491;28;20040;-90
2022/06/23 00:11:23;;;;;;;8.07;4.35;;;;;;;;;;8333648;28;20410;-87
2022/06/23 00:15:30;;;;;;;6.97;3.70;;;;;;;;;;8268954;28;20042;-93
2022/06/23 00:19:33;;;;;;;4.78;3.13;;;;;;;;;;8250860;28;20402;-91
2022/06/23 00:23:39;;;;;;;6.28;3.88;;;;;;;;;;8267714;28;20544;-87
2022/06/23 00:27:44;;;;;;;6.88;3.40;;;;;;;;;;8268835;28;20046;-90
2022/06/23 00:31:56;;;;;;;5.75;3.88;;;;;;;;;;8268701;28;20051;-91
2022/06/23 00:36:00;;;;;;;5.85;3.83;;;;;;;;;;8260664;28;20069;-92
2022/06/23 00:40:07;;;;;;;6.00;3.85;;;;;;;;;;8253658;28;20051;-90
2022/06/23 00:44:19;;;;;;;16.58;4.30;;;;;;;;;;8264427;28;20133;-90
2022/06/23 00:48:25;;;;;;;8.05;4.00;;;;;;;;;;8267585;28;20081;-91
2022/06/23 00:52:34;;;;;;;6.38;4.10;;;;;;;;;;8267537;28;20046;-88
2022/06/23 00:56:47;;;;;;;6.45;3.63;;;;;;;;;;8267488;28;20046;-89
2022/06/23 01:00:54;;;;;;;6.30;3.95;;;;;;;;;;8267400;28;20104;-90
2022/06/23 01:05:01;;;;;;;8.73;4.40;;;;;;;;;;8253539;28;20383;-91
2022/06/23 01:09:14;;;;;;;8.13;4.45;;;;;;;;;;8233407;28;20073;-90
2022/06/23 01:13:26;;;;;;;6.70;4.20;;;;;;;;;;8283151;28;20053;-81
2022/06/23 01:17:38;;;;;;;8.93;4.20;;;;;;;;;;8325477;28;20050;-82
2022/06/23 01:21:45;;;;;;;7.75;4.63;;;;;;;;;;8324013;28;20053;-81
2022/06/23 01:26:02;;;;;;;6.68;4.07;;;;;;;;;;8332302;28;20053;-87
2022/06/23 01:30:10;;;;;;;7.97;3.72;;;;;;;;;;8351377;28;20041;-91
2022/06/23 01:34:21;;;;;;;7.43;4.75;;;;;;;;;;8358728;28;20029;-90
2022/06/23 01:38:28;;;;;;;8.25;4.20;;;;;;;;;;8349601;28;20053;-83
2022/06/23 01:42:39;;;;;;;7.97;4.70;;;;;;;;;;8333406;28;20064;-84
2022/06/23 01:46:48;;;;;;;7.18;4.38;;;;;;;;;;8350103;28;20068;-88
2022/06/23 01:50:52;;;;;;;6.97;4.18;;;;;;;;;;8346401;28;20045;-87
2022/06/23 01:55:03;;;;;;;9.18;4.53;;;;;;;;;;8337548;28;20806;-82
2022/06/23 01:59:20;;;;;;;6.68;4.30;;;;;;;;;;8324692;28;20139;-92
2022/06/23 02:03:31;;;;;;;7.43;4.10;;;;;;;;;;8331162;28;20125;-90
2022/06/23 02:07:38;;;;;;;6.45;4.15;;;;;;;;;;8332747;28;20049;-88
2022/06/23 02:11:46;;;;;;;6.22;4.10;;;;;;;;;;8333369;28;20435;-86
2022/06/23 02:15:59;;;;;;;6.78;4.20;;;;;;;;;;8329777;28;20033;-83
2022/06/23 02:20:20;;;;;;;7.53;4.00;;;;;;;;;;8329171;28;20052;-91
2022/06/23 02:24:28;;;;;;;6.88;3.92;;;;;;;;;;8329331;28;20065;-90
2022/06/23 02:28:37;;;;;;;9.80;4.45;;;;;;;;;;8330683;28;20049;-90
2022/06/23 02:32:58;;;;;;;29.75;15.23;;;;;;;;;;8336796;28;20044;-82
2022/06/23 02:37:09;;;;;;;19.30;9.90;;;;;;;;;;8327767;28;20041;-90
2022/06/23 02:41:15;;;;;;;8.80;4.50;;;;;;;;;;8329805;28;20088;-89
2022/06/23 02:46:12;;;;;;;8.50;4.88;;;;;;;;;;8337587;28;20485;-89
2022/06/23 02:50:42;;;;;;;7.40;5.03;;;;;;;;;;8337267;28;20120;-90
2022/06/23 02:55:04;;;;;;;7.38;4.53;;;;;;;;;;8336908;28;20057;-81
2022/06/23 02:59:11;;;;;;;7.10;4.57;;;;;;;;;;8336118;28;20069;-80
2022/06/23 03:03:20;;;;;;;11.32;4.28;;;;;;;;;;8336605;28;20400;-88
2022/06/23 03:07:28;;;;;;;6.65;4.13;;;;;;;;;;8336425;28;20057;-81
2022/06/23 03:11:54;;;;;;;10.82;5.00;;;;;;;;;;8327450;28;20077;-90
2022/06/23 03:16:04;;;;;;;11.85;5.43;;;;;;;;;;8336195;28;20393;-90
2022/06/23 03:20:12;;;;;;;7.78;4.68;;;;;;;;;;8321729;28;20049;-90
2022/06/23 03:24:25;;;;;;;8.85;4.50;;;;;;;;;;8335625;28;20072;-89
2022/06/23 03:28:34;;;;;;;9.25;5.07;;;;;;;;;;8335335;28;20037;-90
2022/06/23 03:32:42;;;;;;;6.53;4.30;;;;;;;;;;8335072;28;20049;-91
2022/06/23 03:36:50;;;;;;;8.77;4.90;;;;;;;;;;8278724;23;20157;-91
2022/06/23 03:45:25;;;;;;;8.20;4.82;;;;;;;;;;8270109;28;20050;-90
2022/06/23 03:49:39;;;;;;;9.07;4.93;;;;;;;;;;8269583;28;20053;-90
2022/06/23 03:53:51;;;;;;;8.52;4.38;;;;;;;;;;8269974;28;20061;-90
2022/06/23 03:57:57;;;;;;;8.10;5.05;;;;;;;;;;8260393;28;20058;-92
2022/06/23 04:02:11;;;;;;;12.63;7.25;;;;;;;;;;8269119;28;20065;-90
2022/06/23 04:06:23;;;;;;;8.80;4.93;;;;;;;;;;8269426;28;20069;-89
2022/06/23 04:10:31;;;;;;;9.65;4.45;;;;;;;;;;8267638;28;20039;-90
2022/06/23 04:14:46;;;;;;;6.85;4.90;;;;;;;;;;8268776;28;20050;-90
2022/06/23 04:18:50;;;;;;;7.90;4.93;;;;;;;;;;8256847;28;20072;-90
2022/06/23 04:23:02;;;;;;;7.43;5.07;;;;;;;;;;8268477;28;20047;-90
2022/06/23 04:27:13;;;;;;;6.32;3.90;;;;;;;;;;8268464;28;20041;-90
2022/06/23 04:31:18;;;;;;;7.57;4.30;;;;;;;;;;8268412;28;20438;-89
2022/06/23 04:35:27;;;;;;;13.25;7.97;;;;;;;;;;8267801;28;20061;-90
2022/06/23 04:39:37;;;;;;;8.85;5.95;;;;;;;;;;8267865;28;20045;-80
2022/06/23 04:43:45;;;;;;;8.90;5.88;;;;;;;;;;8267695;28;20057;-90
2022/06/23 04:47:48;;;;;;;10.05;7.25;;;;;;;;;;8267548;28;20066;-89
2022/06/23 04:51:57;;;;;;;9.07;7.43;;;;;;;;;;8267040;28;20050;-88
2022/06/23 04:56:07;;;;;;;11.98;8.70;;;;;;;;;;8267624;28;20141;-86
2022/06/23 05:00:23;;;;;;;10.40;8.32;;;;;;;;;;8267116;28;20050;-82
2022/06/23 05:04:30;;;;;;;16.00;10.40;;;;;;;;;;8267765;28;20066;-85
2022/06/23 05:08:41;;;;;;;15.30;9.35;;;;;;;;;;8266953;28;20153;-89
2022/06/23 05:12:49;;;;;;;20.80;11.77;;;;;;;;;;8267266;28;20680;-89
2022/06/23 05:16:56;;;;;;;20.95;11.90;;;;;;;;;;8266611;28;20038;-82
2022/06/23 05:21:02;;;;;;;14.95;9.75;;;;;;;;;;8266963;28;20129;-89
2022/06/23 05:25:37;;;;;;;13.52;9.38;;;;;;;;;;8266459;28;20383;-82
2022/06/23 05:29:45;;;;;;;11.23;9.30;;;;;;;;;;8243574;28;20113;-89
2022/06/23 05:33:57;;;;;;;11.57;8.50;;;;;;;;;;8264320;28;20100;-90
2022/06/23 05:38:07;;;;;;;13.57;8.07;;;;;;;;;;8265515;28;20061;-91
2022/06/23 05:42:20;;;;;;;11.80;8.00;;;;;;;;;;8248244;28;20121;-91
2022/06/23 05:46:27;;;;;;;18.40;8.10;;;;;;;;;;8265541;28;20478;-90
2022/06/23 05:50:42;;;;;;;11.57;8.38;;;;;;;;;;8264786;28;20132;-91
2022/06/23 05:54:51;;;;;;;17.50;8.40;;;;;;;;;;8262856;28;20057;-84
2022/06/23 05:58:59;;;;;;;14.15;8.70;;;;;;;;;;8260794;28;20486;-81
2022/06/23 06:03:09;;;;;;;13.23;8.82;;;;;;;;;;8263853;28;20053;-82
2022/06/23 06:07:16;;;;;;;16.88;9.38;;;;;;;;;;8244151;28;20410;-90
2022/06/23 06:11:19;;;;;;;9.07;7.80;;;;;;;;;;8265234;28;20038;-82
2022/06/23 06:15:26;;;;;;;10.45;7.68;;;;;;;;;;8264881;28;20046;-89
2022/06/23 06:19:33;;;;;;;11.25;7.20;;;;;;;;;;8265047;28;20047;-91
2022/06/23 06:23:43;;;;;;;15.63;7.28;;;;;;;;;;8263777;28;20125;-89
2022/06/23 06:27:45;;;;;;;9.55;5.90;;;;;;;;;;8261545;28;20046;-87
2022/06/23 06:31:56;;;;;;;10.38;5.05;;;;;;;;;;8263447;28;20470;-91
2022/06/23 06:35:59;;;;;;;6.45;3.83;;;;;;;;;;8260190;28;20098;-90
2022/06/23 06:40:08;;;;;;;10.65;3.42;;;;;;;;;;8256811;28;20058;-85
2022/06/23 06:44:11;;;;;;;6.93;3.58;;;;;;;;;;8251888;28;20097;-88
2022/06/23 06:48:32;;;;;;;5.55;3.30;;;;;;;;;;8248156;28;20129;-87
2022/06/23 06:52:37;;;;;;;4.65;2.83;;;;;;;;;;8241021;28;20073;-88
2022/06/23 06:56:44;;;;;;;5.20;3.13;;;;;;;;;;8254999;28;20486;-90
2022/06/23 07:00:52;;;;;;;5.57;2.50;;;;;;;;;;8239114;28;20467;-82
2022/06/23 07:05:03;;;;;;;4.45;2.88;;;;;;;;;;8235738;28;20061;-87
2022/06/23 07:09:18;;;;;;;4.78;2.72;;;;;;;;;;8254910;28;20053;-89
2022/06/23 07:13:30;;;;;;;3.90;2.45;;;;;;;;;;8256802;28;20047;-83
2022/06/23 07:17:46;;;;;;;5.57;2.35;;;;;;;;;;8251296;28;20488;-80
2022/06/23 07:21:59;;;;;;;4.65;2.47;;;;;;;;;;8258009;28;20058;-83
2022/06/23 07:26:30;;;;;;;5.15;2.70;;;;;;;;;;8233349;28;20055;-87
2022/06/23 07:30:46;;;;;;;5.20;2.72;;;;;;;;;;8259422;28;20051;-83
2022/06/23 07:34:59;;;;;;;3.88;2.55;;;;;;;;;;8264442;28;20052;-82
2022/06/23 07:39:10;;;;;;;5.70;2.50;;;;;;;;;;8248247;28;21438;-86
2022/06/23 07:43:22;;;;;;;8.35;2.78;;;;;;;;;;8245922;28;20121;-82
2022/06/23 07:47:26;;;;;;;;;;;;;;;;;;8246596;28;20089;-81
2022/06/23 07:51:30;;;;;;;6.20;2.60;;;;;;;;;;8250461;28;19957;-82
2022/06/23 07:55:38;;;;;;;6.78;2.53;;;;;;;;;;8264262;28;20058;-89
2022/06/23 08:00:03;;;;;;;3.35;1.80;;;;;;;;;;8262183;28;20515;-80
2022/06/23 08:04:16;;;;;;;3.33;1.80;;;;;;;;;;8248146;28;20050;-82
2022/06/23 08:08:32;;;;;;;4.72;1.70;;;;;;;;;;8243664;28;20077;-84
2022/06/23 08:13:03;;;;;;;2.20;1.60;;;;;;;;;;8247237;28;20043;-87
2022/06/23 08:17:15;;;;;;;2.05;1.60;;;;;;;;;;8231382;28;20142;-81
2022/06/23 08:21:32;;;;;;;2.47;1.80;;;;;;;;;;8258534;28;20397;-83
2022/06/23 08:25:48;;;;;;;3.00;1.52;;;;;;;;;;8244560;28;20047;-82
2022/06/23 08:30:08;;;;;;;2.63;1.73;;;;;;;;;;8258201;28;20054;-84
2022/06/23 08:34:20;;;;;;;2.25;1.60;;;;;;;;;;8244672;28;20050;-83
2022/06/23 08:38:31;;;;;;;2.42;1.52;;;;;;;;;;8244538;28;20403;-82
2022/06/23 08:42:53;;;;;;;2.60;1.60;;;;;;;;;;8247401;28;20058;-81
2022/06/23 08:47:23;;;;;;;2.90;1.50;;;;;;;;;;8256847;28;20047;-83
2022/06/23 08:51:54;;;;;;;2.50;1.65;;;;;;;;;;8240591;28;20142;-84
2022/06/23 08:56:07;;;;;;;2.92;1.52;;;;;;;;;;8235337;28;20049;-81
2022/06/23 09:00:20;;;;;;;3.38;1.67;;;;;;;;;;8242220;28;20054;-85
2022/06/23 09:04:41;;;;;;;3.83;1.90;;;;;;;;;;8266426;28;20054;-87
2022/06/23 09:08:53;;;;;;;4.05;1.70;;;;;;;;;;8265363;28;20461;-87
2022/06/23 09:13:08;;;;;;;2.33;1.65;;;;;;;;;;8266191;28;20049;-88
2022/06/23 09:17:32;;;;;;;3.50;1.58;;;;;;;;;;8263512;28;20048;-83
2022/06/23 09:21:53;;;;;;;6.18;2.10;;;;;;;;;;8260215;28;20509;-87
2022/06/23 09:26:06;;;;;;;18.35;8.00;;;;;;;;;;8263412;28;20053;-85
2022/06/23 09:30:16;;;;;;;2.58;1.83;;;;;;;;;;8266750;28;20057;-89
2022/06/23 09:34:36;;;;;;;2.43;1.70;;;;;;;;;;8266204;28;20545;-85
2022/06/23 09:39:17;;;;;;;1.67;1.48;;;;;;;;;;8265504;28;20064;-88
2022/06/23 09:43:56;;;;;;;3.03;1.70;;;;;;;;;;8255582;28;20046;-86
2022/06/23 09:48:32;;;;;;;1.88;1.63;;;;;;;;;;8263631;28;20042;-80
2022/06/23 09:52:57;;;;;;;3.85;1.52;;;;;;;;;;8265461;28;20149;-80
2022/06/23 09:57:52;;;;;;;4.07;1.88;;;;;;;;;;8261612;28;20053;-90
2022/06/23 10:02:02;;;;;;;4.47;1.60;;;;;;;;;;8230652;28;20064;-87
2022/06/23 10:06:28;;;;;;;2.40;1.50;;;;;;;;;;8261357;28;20054;-86
2022/06/23 10:10:46;;;;;;;3.03;1.52;;;;;;;;;;8264724;28;20128;-88
2022/06/23 10:15:04;;;;;;;2.72;1.42;;;;;;;;;;8264286;28;20497;-87
2022/06/23 10:19:38;;;;;;;2.72;1.63;;;;;;;;;;8263961;28;20457;-87
2022/06/23 10:24:07;;;;;;;3.10;1.77;;;;;;;;;;8264430;28;20517;-90
2022/06/23 10:28:28;;;;;;;3.25;1.75;;;;;;;;;;8245399;28;20047;-86
2022/06/23 10:33:18;;;;;;;4.30;1.80;;;;;;;;;;8260937;28;20045;-90
2022/06/23 10:37:37;;;;;;;2.90;1.88;;;;;;;;;;8261641;28;20487;-89
2022/06/23 10:42:03;;;;;;;4.57;2.25;;;;;;;;;;8263165;28;20046;-89
2022/06/23 10:46:15;;;;;;;2.75;1.70;;;;;;;;;;8246625;28;20590;-90
2022/06/23 10:50:49;;;;;;;5.10;1.85;;;;;;;;;;8266018;28;20483;-85
2022/06/23 10:55:33;;;;;;;2.67;2.00;;;;;;;;;;8271365;28;20052;-81
2022/06/23 10:59:46;;;;;;;;;;;;;;;;;;8268163;28;20046;-87
2022/06/23 11:04:28;;;;;;;2.65;1.70;;;;;;;;;;8263964;28;20294;-87
2022/06/23 11:08:56;;;;;;;3.35;1.70;;;;;;;;;;8215028;28;20058;-80
2022/06/23 11:13:12;;;;;;;4.03;2.10;;;;;;;;;;8261858;28;20096;-87
2022/06/23 11:17:37;;;;;;;4.00;1.70;;;;;;;;;;8255076;28;20039;-81
2022/06/23 11:22:16;;;;;;;7.65;2.20;;;;;;;;;;8235424;28;20134;-81
2022/06/23 11:26:51;;;;;;;2.75;2.00;;;;;;;;;;8252596;28;20169;-80
2022/06/23 11:31:30;;;;;;;4.53;2.00;;;;;;;;;;8253995;28;20058;-80
2022/06/23 11:36:00;;;;;;;;;;;;;;;;;;8246121;28;20058;-80
2022/06/23 11:40:29;;;;;;;3.03;2.00;;;;;;;;;;8242231;28;20292;-89
2022/06/23 11:44:59;;;;;;;5.00;2.30;;;;;;;;;;8233809;28;20050;-81
2022/06/23 11:49:35;;;;;;;3.75;2.30;;;;;;;;;;8233552;28;20047;-86
2022/06/23 11:54:27;;;;;;;3.67;2.10;;;;;;;;;;8232050;28;20054;-89
2022/06/23 11:59:07;;;;;;;4.30;2.10;;;;;;;;;;8238597;28;20058;-83
2022/06/23 12:03:36;;;;;;;3.97;1.90;;;;;;;;;;8254980;28;20050;-87
2022/06/23 12:08:42;;;;;;;6.43;2.10;;;;;;;;;;8245395;28;20074;-87
2022/06/23 12:13:04;;;;;;;3.53;2.10;;;;;;;;;;8227829;28;20388;-86
2022/06/23 12:17:26;;;;;;;5.47;2.10;;;;;;;;;;8248670;28;20042;-81
2022/06/23 12:21:59;;;;;;;3.70;2.20;;;;;;;;;;8260467;28;20582;-80
2022/06/23 12:26:28;;;;;;;3.88;2.00;;;;;;;;;;8252716;28;20054;-89
2022/06/23 12:31:12;;;;;;;3.53;2.20;;;;;;;;;;8229532;28;20055;-82
2022/06/23 12:36:03;;;;;;;6.03;2.50;;;;;;;;;;8257302;28;20082;-81
2022/06/23 12:40:30;;;;;;;3.42;2.03;;;;;;;;;;8239178;28;20602;-80
2022/06/23 12:45:07;;;;;;;3.13;2.10;;;;;;;;;;8249265;28;20425;-82
2022/06/23 12:50:04;;;;;;;2.28;1.98;;;;;;;;;;8242470;28;20125;-82
2022/06/23 12:54:41;;;;;;;3.17;2.05;;;;;;;;;;8255516;28;20482;-82
2022/06/23 12:58:57;;;;;;;3.13;2.10;;;;;;;;;;8251303;28;20061;-80
2022/06/23 13:03:30;;;;;;;3.28;2.33;;;;;;;;;;8248484;28;20404;-83
2022/06/23 13:08:01;;;;;;;4.25;2.35;;;;;;;;;;8236563;28;20054;-85
2022/06/23 13:12:33;;;;;;;3.60;2.00;;;;;;;;;;8247940;28;20092;-80
2022/06/23 13:17:06;;;;;;;3.47;2.08;;;;;;;;;;8241032;28;20495;-81
2022/06/23 13:21:29;;;;;;;3.58;2.30;;;;;;;;;;8249850;28;20050;-85
2022/06/23 13:26:08;;;;;;;5.03;2.45;;;;;;;;;;8231092;28;20038;-85
2022/06/23 13:30:41;;;;;;;5.03;2.28;;;;;;;;;;8228864;28;20502;-87
2022/06/23 13:40:11;;;;;;;3.13;2.30;;;;;;;;;;8233568;28;20051;-86
2022/06/23 13:44:50;;;;;;;4.00;2.08;;;;;;;;;;8258427;28;20076;-80
2022/06/23 13:49:00;;;;;;;4.40;2.20;;;;;;;;;;8262291;28;20101;-88
2022/06/23 13:53:09;;;;;;;5.65;2.50;;;;;;;;;;8263881;28;20050;-82
2022/06/23 13:57:21;;;;;;;4.90;2.25;;;;;;;;;;8263610;28;20042;-84
2022/06/23 14:01:31;;;;;;;5.00;2.17;;;;;;;;;;8263858;28;20150;-87
2022/06/23 14:05:39;;;;;;;2.97;2.10;;;;;;;;;;8265577;28;20046;-88
2022/06/23 14:09:49;;;;;;;3.83;2.25;;;;;;;;;;8264375;28;20418;-87
2022/06/23 14:14:01;;;;;;;3.90;2.38;;;;;;;;;;8265677;28;20104;-88
2022/06/23 14:18:08;;;;;;;2.97;2.40;;;;;;;;;;8265183;28;20053;-88
2022/06/23 14:22:23;;;;;;;2.55;2.10;;;;;;;;;;8267420;28;20045;-86
2022/06/23 14:26:34;;;;;;;3.88;2.00;;;;;;;;;;8273474;28;20086;-88
2022/06/23 14:30:47;;;;;;;4.43;2.20;;;;;;;;;;8273837;28;20057;-83
2022/06/23 14:34:56;;;;;;;5.10;2.50;;;;;;;;;;8271753;28;20042;-85
2022/06/23 14:39:05;;;;;;;3.03;1.95;;;;;;;;;;8271398;28;20059;-81
2022/06/23 14:43:24;;;;;;;3.08;2.30;;;;;;;;;;8271662;28;20057;-83
2022/06/23 14:47:39;;;;;;;3.97;2.15;;;;;;;;;;8262694;28;20054;-89
2022/06/23 14:51:50;;;;;;;4.13;2.20;;;;;;;;;;8271138;28;20482;-81
2022/06/23 14:56:06;;;;;;;5.97;2.40;;;;;;;;;;8271237;28;20046;-81
2022/06/23 15:00:14;;;;;;;3.88;2.35;;;;;;;;;;8271097;28;20058;-84
2022/06/23 15:04:29;;;;;;;3.90;2.20;;;;;;;;;;8271363;28;20039;-88
2022/06/23 15:08:38;;;;;;;4.20;2.33;;;;;;;;;;8271323;28;20070;-88
2022/06/23 15:12:51;;;;;;;5.70;2.15;;;;;;;;;;8270714;28;20092;-88
2022/06/23 15:17:02;;;;;;;4.38;2.35;;;;;;;;;;8266897;28;20101;-88
2022/06/23 15:25:42;;;;;;;5.05;2.50;;;;;;;;;;8269368;28;20057;-89
2022/06/23 15:29:52;;;;;;;2.63;2.10;;;;;;;;;;8268769;28;20069;-90
2022/06/23 15:34:05;;;;;;;3.03;2.08;;;;;;;;;;8259957;28;20042;-80
2022/06/23 15:38:33;;;;;;;4.05;2.20;;;;;;;;;;8267292;28;20054;-80
2022/06/23 15:42:49;;;;;;;4.55;2.10;;;;;;;;;;8242596;28;20132;-80
2022/06/23 15:47:03;;;;;;;2.90;2.20;;;;;;;;;;8234779;28;20375;-84
2022/06/23 15:51:22;;;;;;;4.28;2.08;;;;;;;;;;8245000;28;20058;-81
2022/06/23 15:55:50;;;;;;;4.63;2.45;;;;;;;;;;8250935;28;20050;-87
2022/06/23 16:00:12;;;;;;;5.38;2.00;;;;;;;;;;8257394;28;20129;-81
2022/06/23 16:04:22;;;;;;;5.50;2.30;;;;;;;;;;8259001;28;20046;-88
2022/06/23 16:08:29;;;;;;;5.35;2.80;;;;;;;;;;8262137;28;20042;-88
2022/06/23 16:12:38;;;;;;;4.50;2.30;;;;;;;;;;8267616;28;20414;-89
2022/06/23 16:16:44;;;;;;;5.35;3.10;;;;;;;;;;8268533;28;20050;-87
2022/06/23 16:20:58;;;;;;;3.45;2.40;;;;;;;;;;8268133;28;20234;-87
2022/06/23 16:25:07;;;;;;;5.07;2.47;;;;;;;;;;8268741;28;20129;-82
2022/06/23 16:29:16;;;;;;;5.82;2.33;;;;;;;;;;8269094;28;20077;-84
2022/06/23 16:33:32;;;;;;;3.20;2.00;;;;;;;;;;8268328;28;20049;-86
2022/06/23 16:37:43;;;;;;;3.58;2.20;;;;;;;;;;8266270;28;20054;-88
2022/06/23 16:41:54;;;;;;;;;;;;;;;;;;8262804;28;20046;-88
2022/06/23 16:46:10;;;;;;;4.43;2.00;;;;;;;;;;8265507;28;19946;-86
2022/06/23 16:50:25;;;;;;;3.70;2.42;;;;;;;;;;8266788;28;20057;-86
2022/06/23 16:54:41;;;;;;;7.45;2.20;;;;;;;;;;8257429;28;20074;-86
2022/06/23 16:59:02;;;;;;;4.25;2.22;;;;;;;;;;8262476;28;20054;-85
2022/06/23 17:03:17;;;;;;;4.80;2.30;;;;;;;;;;8256888;28;20751;-86
2022/06/23 17:07:30;;;;;;;4.10;2.10;;;;;;;;;;8261488;28;20050;-83
2022/06/23 17:11:36;;;;;;;5.38;2.10;;;;;;;;;;8244721;28;20054;-86
2022/06/23 17:15:48;;;;;;;4.65;2.50;;;;;;;;;;8245339;28;20058;-79
2022/06/23 17:19:56;;;;;;;6.30;2.25;;;;;;;;;;8243307;28;20113;-85
2022/06/23 17:24:10;;;;;;;4.82;2.40;;;;;;;;;;8244790;28;20065;-80
2022/06/23 17:28:25;;;;;;;4.22;2.50;;;;;;;;;;8247982;28;20129;-80
2022/06/23 17:32:38;;;;;;;6.00;2.25;;;;;;;;;;8230825;28;20057;-83
2022/06/23 17:36:48;;;;;;;3.50;2.13;;;;;;;;;;8249724;28;20086;-83
2022/06/23 17:45:19;;;;;;;3.30;2.40;;;;;;;;;;8261203;28;20061;-83
2022/06/23 17:49:29;;;;;;;5.35;2.58;;;;;;;;;;8258782;28;20050;-80
2022/06/23 17:53:34;;;;;;;4.28;2.78;;;;;;;;;;8243847;28;20121;-87
2022/06/23 17:57:39;;;;;;;3.47;2.42;;;;;;;;;;8264840;28;20046;-87
2022/06/23 18:01:51;;;;;;;4.68;2.70;;;;;;;;;;8263991;28;20050;-88
2022/06/23 18:06:09;;;;;;;5.85;2.70;;;;;;;;;;8264631;28;20046;-88
2022/06/23 18:10:21;;;;;;;5.80;2.83;;;;;;;;;;8257523;28;20547;-87
2022/06/23 18:14:37;;;;;;;5.40;2.70;;;;;;;;;;8265582;28;20070;-87
2022/06/23 18:18:46;;;;;;;5.03;2.70;;;;;;;;;;8265273;28;20047;-85
2022/06/23 18:23:02;;;;;;;4.17;2.70;;;;;;;;;;8267120;28;20077;-87
2022/06/23 18:27:20;;;;;;;4.85;2.90;;;;;;;;;;8265300;28;20137;-87
2022/06/23 18:31:33;;;;;;;5.68;3.10;;;;;;;;;;8265641;28;20054;-87
2022/06/23 18:35:43;;;;;;;6.30;3.30;;;;;;;;;;8264963;28;20141;-85
2022/06/23 18:39:55;;;;;;;6.37;3.80;;;;;;;;;;8265120;28;20042;-88
2022/06/23 18:44:08;;;;;;;;;;;;;;;;;;8265620;28;20125;-87
2022/06/23 18:48:20;;;;;;;13.98;3.47;;;;;;;;;;8253422;28;19945;-87
2022/06/23 18:52:29;;;;;;;9.23;3.13;;;;;;;;;;8247298;28;20038;-87
2022/06/23 18:57:35;;;;;;;4.65;2.83;;;;;;;;;;8241514;28;20100;-88
2022/06/23 19:01:48;;;;;;;6.90;2.90;;;;;;;;;;8263617;28;20081;-86
2022/06/23 19:05:57;;;;;;;3.65;2.70;;;;;;;;;;8264272;28;20068;-81
2022/06/23 19:10:07;;;;;;;7.10;3.65;;;;;;;;;;8264448;28;20458;-81
2022/06/23 19:14:24;;;;;;;4.72;3.08;;;;;;;;;;8268858;28;20073;-82
2022/06/23 19:18:41;;;;;;;4.78;2.80;;;;;;;;;;8261881;28;20047;-87
2022/06/23 19:22:55;;;;;;;4.68;3.20;;;;;;;;;;8270382;28;20430;-87
2022/06/23 19:27:07;;;;;;;5.95;3.55;;;;;;;;;;8267801;28;20073;-85
2022/06/23 19:31:18;;;;;;;5.38;3.78;;;;;;;;;;8270199;28;20050;-87
2022/06/23 19:35:28;;;;;;;5.97;4.10;;;;;;;;;;8269793;28;20050;-87
2022/06/23 19:39:53;;;;;;;6.25;3.65;;;;;;;;;;8269996;28;20038;-88
2022/06/23 19:44:29;;;;;;;5.80;3.72;;;;;;;;;;8266918;28;20410;-86
2022/06/23 19:48:41;;;;;;;7.22;4.30;;;;;;;;;;8261898;28;20108;-80
2022/06/23 19:52:48;;;;;;;;;;;;;;;;;;8267543;28;20453;-83
2022/06/23 19:56:58;;;;;;;8.20;4.68;;;;;;;;;;8261806;28;19927;-87
2022/06/23 20:01:12;;;;;;;6.67;4.60;;;;;;;;;;8265719;28;20493;-83
2022/06/23 20:06:18;;;;;;;6.80;4.32;;;;;;;;;;8266316;28;20486;-86
2022/06/23 20:10:35;;;;;;;7.35;4.20;;;;;;;;;;8252482;28;20059;-83
2022/06/23 20:14:48;;;;;;;8.63;4.60;;;;;;;;;;8264024;28;20121;-85
2022/06/23 20:19:01;;;;;;;7.35;4.97;;;;;;;;;;8267857;28;20410;-80
2022/06/23 20:23:23;;;;;;;6.35;5.03;;;;;;;;;;8264302;28;20046;-87
2022/06/23 20:27:37;;;;;;;5.90;4.50;;;;;;;;;;8263662;28;20047;-87
2022/06/23 20:31:52;;;;;;;8.45;4.90;;;;;;;;;;8265621;28;20053;-80
2022/06/23 20:36:03;;;;;;;6.22;4.43;;;;;;;;;;8264877;28;20438;-84
2022/06/23 20:40:22;;;;;;;7.68;4.85;;;;;;;;;;8267828;28;20097;-86
2022/06/23 20:44:38;;;;;;;10.57;5.20;;;;;;;;;;8262725;28;20100;-86
2022/06/23 20:49:14;;;;;;;11.68;5.05;;;;;;;;;;8265855;28;20061;-86
2022/06/23 20:53:25;;;;;;;8.20;4.93;;;;;;;;;;8251295;28;20054;-84
2022/06/23 20:57:42;;;;;;;7.90;5.50;;;;;;;;;;8258248;28;20221;-87
2022/06/23 21:01:54;;;;;;;6.63;4.72;;;;;;;;;;8253624;28;20054;-87
2022/06/23 21:06:03;;;;;;;6.20;4.70;;;;;;;;;;8264533;28;20078;-87
2022/06/23 21:10:13;;;;;;;7.28;4.88;;;;;;;;;;8265193;28;20050;-86
2022/06/23 21:14:23;;;;;;;6.65;5.10;;;;;;;;;;8264649;28;20061;-87
2022/06/23 21:18:48;;;;;;;6.40;4.50;;;;;;;;;;8251738;28;20129;-85
2022/06/23 21:23:18;;;;;;;8.30;6.32;;;;;;;;;;8265369;28;20485;-86
2022/06/23 21:27:38;;;;;;;7.68;5.50;;;;;;;;;;8254796;28;20039;-87
2022/06/23 21:31:46;;;;;;;9.70;5.97;;;;;;;;;;8260318;28;20076;-87
2022/06/23 21:35:56;;;;;;;7.05;5.53;;;;;;;;;;8263686;28;20054;-87
2022/06/23 21:40:03;;;;;;;8.45;5.82;;;;;;;;;;8272936;28;20133;-87
2022/06/23 21:44:11;;;;;;;7.22;5.32;;;;;;;;;;8264210;28;20081;-86
2022/06/23 21:48:26;;;;;;;7.55;5.88;;;;;;;;;;8263521;28;20042;-86
2022/06/23 21:52:44;;;;;;;9.00;5.63;;;;;;;;;;8264714;28;20080;-85
2022/06/23 21:57:08;;;;;;;8.60;6.00;;;;;;;;;;8258122;28;20050;-87
2022/06/23 22:01:24;;;;;;;8.88;5.60;;;;;;;;;;8263189;28;20066;-81
2022/06/23 22:05:34;;;;;;;7.47;5.57;;;;;;;;;;8263606;28;20070;-88
2022/06/23 22:09:46;;;;;;;7.45;5.95;;;;;;;;;;8253950;28;20057;-88
2022/06/23 22:13:52;;;;;;;;;;;;;;;;;;8265128;28;20490;-81
2022/06/23 22:17:58;;;;;;;8.45;5.97;;;;;;;;;;8265302;28;19929;-87
2022/06/23 22:22:18;;;;;;;9.63;5.97;;;;;;;;;;8265526;28;20061;-86
2022/06/23 22:26:39;;;;;;;8.63;6.05;;;;;;;;;;8266694;28;20042;-88
2022/06/23 22:30:48;;;;;;;7.68;6.18;;;;;;;;;;8252686;28;20057;-84
2022/06/23 22:35:00;;;;;;;9.35;5.25;;;;;;;;;;8263294;28;20133;-87
2022/06/23 22:39:19;;;;;;;8.85;6.53;;;;;;;;;;8262463;28;20410;-87
2022/06/23 22:43:33;;;;;;;9.48;7.60;;;;;;;;;;8255260;28;20417;-84
2022/06/23 22:47:38;;;;;;;9.38;7.40;;;;;;;;;;8268692;28;20043;-86
2022/06/23 22:52:16;;;;;;;9.52;6.40;;;;;;;;;;8269699;28;20042;-88
2022/06/23 22:56:41;;;;;;;7.40;5.82;;;;;;;;;;8276717;28;20070;-86
2022/06/23 23:01:07;;;;;;;8.40;5.97;;;;;;;;;;8271565;28;20093;-83
2022/06/23 23:05:16;;;;;;;8.60;6.18;;;;;;;;;;8269433;28;20043;-89
2022/06/23 23:09:22;;;;;;;6.95;5.95;;;;;;;;;;8271418;28;20133;-87
2022/06/23 23:13:28;;;;;;;9.05;5.97;;;;;;;;;;8269382;28;20050;-85
2022/06/23 23:17:33;;;;;;;8.02;5.97;;;;;;;;;;8270529;28;20069;-88
2022/06/23 23:21:35;;;;;;;11.63;6.15;;;;;;;;;;8270683;28;20046;-89
2022/06/23 23:25:39;;;;;;;10.30;6.28;;;;;;;;;;8269553;28;20461;-82
2022/06/23 23:29:45;;;;;;;14.18;6.30;;;;;;;;;;8270262;28;20085;-88
2022/06/23 23:33:55;;;;;;;7.88;5.70;;;;;;;;;;8282734;28;20046;-88
2022/06/23 23:37:57;;;;;;;9.68;6.20;;;;;;;;;;8269666;28;20073;-88
2022/06/23 23:42:02;;;;;;;9.65;7.07;;;;;;;;;;8266273;28;20046;-89
2022/06/23 23:46:05;;;;;;;10.63;6.40;;;;;;;;;;8269888;28;20541;-89
2022/06/23 23:50:14;;;;;;;9.60;6.72;;;;;;;;;;8269570;28;20053;-88
2022/06/23 23:54:17;;;;;;;8.80;5.70;;;;;;;;;;8266399;28;21922;-84
2022/06/23 23:58:22;;;;;;;7.47;5.75;;;;;;;;;;8268836;28;20046;-85
